sensor_id;sensor_type;location;lat;lon;timestamp;P1;durP1;ratioP1;P2;durP2;ratioP2
69771;SDS011;57046;45.988;18.664;2022-08-19T00:00:12;1.40;;;0.80;;
69771;SDS011;57046;45.988;18.664;2022-08-19T00:02:38;1.20;;;0.93;;
69771;SDS011;57046;45.988;18.664;2022-08-19T00:05:03;1.60;;;1.10;;
69771;SDS011;57046;45.988;18.664;2022-08-19T00:07:29;1.92;;;1.20;;
69771;SDS011;57046;45.988;18.664;2022-08-19T00:09:54;2.83;;;0.90;;
69771;SDS011;57046;45.988;18.664;2022-08-19T00:12:20;5.37;;;0.90;;
69771;SDS011;57046;45.988;18.664;2022-08-19T00:14:45;3.85;;;1.10;;
69771;SDS011;57046;45.988;18.664;2022-08-19T00:17:10;1.73;;;1.07;;
69771;SDS011;57046;45.988;18.664;2022-08-19T00:19:36;2.10;;;0.93;;
69771;SDS011;57046;45.988;18.664;2022-08-19T00:22:01;3.88;;;1.00;;
69771;SDS011;57046;45.988;18.664;2022-08-19T00:24:28;1.60;;;1.20;;
69771;SDS011;57046;45.988;18.664;2022-08-19T00:26:53;1.73;;;1.00;;
69771;SDS011;57046;45.988;18.664;2022-08-19T00:29:20;1.85;;;0.95;;
69771;SDS011;57046;45.988;18.664;2022-08-19T00:31:46;1.67;;;1.10;;
69771;SDS011;57046;45.988;18.664;2022-08-19T00:34:12;4.83;;;1.30;;
69771;SDS011;57046;45.988;18.664;2022-08-19T00:36:39;3.53;;;1.50;;
69771;SDS011;57046;45.988;18.664;2022-08-19T00:39:05;1.38;;;0.95;;
69771;SDS011;57046;45.988;18.664;2022-08-19T00:41:31;2.03;;;1.15;;
69771;SDS011;57046;45.988;18.664;2022-08-19T00:44:30;2.10;;;0.90;;
69771;SDS011;57046;45.988;18.664;2022-08-19T00:46:51;2.58;;;0.90;;
69771;SDS011;57046;45.988;18.664;2022-08-19T00:49:29;1.67;;;1.30;;
69771;SDS011;57046;45.988;18.664;2022-08-19T00:52:06;3.22;;;0.98;;
69771;SDS011;57046;45.988;18.664;2022-08-19T00:54:35;2.07;;;1.10;;
69771;SDS011;57046;45.988;18.664;2022-08-19T00:57:02;1.92;;;1.10;;
69771;SDS011;57046;45.988;18.664;2022-08-19T00:59:30;2.08;;;1.13;;
69771;SDS011;57046;45.988;18.664;2022-08-19T01:01:59;1.20;;;0.90;;
69771;SDS011;57046;45.988;18.664;2022-08-19T01:04:24;2.40;;;1.00;;
69771;SDS011;57046;45.988;18.664;2022-08-19T01:06:50;2.73;;;1.07;;
69771;SDS011;57046;45.988;18.664;2022-08-19T01:09:15;1.88;;;1.05;;
69771;SDS011;57046;45.988;18.664;2022-08-19T01:11:41;1.83;;;1.00;;
69771;SDS011;57046;45.988;18.664;2022-08-19T01:14:09;2.17;;;1.05;;
69771;SDS011;57046;45.988;18.664;2022-08-19T01:16:35;1.27;;;1.10;;
69771;SDS011;57046;45.988;18.664;2022-08-19T01:19:03;1.65;;;1.00;;
69771;SDS011;57046;45.988;18.664;2022-08-19T01:21:43;1.13;;;0.88;;
69771;SDS011;57046;45.988;18.664;2022-08-19T01:24:13;2.35;;;0.98;;
69771;SDS011;57046;45.988;18.664;2022-08-19T01:26:40;2.43;;;1.13;;
69771;SDS011;57046;45.988;18.664;2022-08-19T01:29:07;2.35;;;1.00;;
69771;SDS011;57046;45.988;18.664;2022-08-19T01:31:33;1.70;;;1.00;;
69771;SDS011;57046;45.988;18.664;2022-08-19T01:33:59;2.23;;;1.00;;
69771;SDS011;57046;45.988;18.664;2022-08-19T01:39:00;1.80;;;0.80;;
69771;SDS011;57046;45.988;18.664;2022-08-19T01:41:29;1.97;;;1.00;;
69771;SDS011;57046;45.988;18.664;2022-08-19T01:43:54;3.72;;;1.00;;
69771;SDS011;57046;45.988;18.664;2022-08-19T01:46:19;1.60;;;0.93;;
69771;SDS011;57046;45.988;18.664;2022-08-19T01:48:45;1.37;;;1.10;;
69771;SDS011;57046;45.988;18.664;2022-08-19T01:51:11;1.35;;;0.90;;
69771;SDS011;57046;45.988;18.664;2022-08-19T01:53:38;2.67;;;0.85;;
69771;SDS011;57046;45.988;18.664;2022-08-19T01:56:04;2.70;;;0.97;;
69771;SDS011;57046;45.988;18.664;2022-08-19T01:58:32;1.20;;;0.82;;
69771;SDS011;57046;45.988;18.664;2022-08-19T02:01:03;1.33;;;1.00;;
69771;SDS011;57046;45.988;18.664;2022-08-19T02:03:30;2.65;;;0.93;;
69771;SDS011;57046;45.988;18.664;2022-08-19T02:05:56;1.90;;;1.20;;
69771;SDS011;57046;45.988;18.664;2022-08-19T02:08:24;2.03;;;0.88;;
69771;SDS011;57046;45.988;18.664;2022-08-19T02:10:49;3.17;;;0.90;;
69771;SDS011;57046;45.988;18.664;2022-08-19T02:13:15;3.23;;;1.00;;
69771;SDS011;57046;45.988;18.664;2022-08-19T02:15:41;2.60;;;1.00;;
69771;SDS011;57046;45.988;18.664;2022-08-19T02:18:07;2.70;;;1.13;;
69771;SDS011;57046;45.988;18.664;2022-08-19T02:20:32;1.67;;;1.05;;
69771;SDS011;57046;45.988;18.664;2022-08-19T02:22:58;1.87;;;1.03;;
69771;SDS011;57046;45.988;18.664;2022-08-19T02:25:23;3.15;;;1.35;;
69771;SDS011;57046;45.988;18.664;2022-08-19T02:27:49;1.83;;;1.00;;
69771;SDS011;57046;45.988;18.664;2022-08-19T02:30:15;2.27;;;1.50;;
69771;SDS011;57046;45.988;18.664;2022-08-19T02:32:41;1.48;;;1.00;;
69771;SDS011;57046;45.988;18.664;2022-08-19T02:35:07;1.80;;;1.00;;
69771;SDS011;57046;45.988;18.664;2022-08-19T02:37:34;3.13;;;1.20;;
69771;SDS011;57046;45.988;18.664;2022-08-19T02:39:59;1.88;;;1.50;;
69771;SDS011;57046;45.988;18.664;2022-08-19T02:42:25;2.10;;;1.27;;
69771;SDS011;57046;45.988;18.664;2022-08-19T02:44:50;3.10;;;1.47;;
69771;SDS011;57046;45.988;18.664;2022-08-19T02:47:16;1.60;;;1.00;;
69771;SDS011;57046;45.988;18.664;2022-08-19T02:49:41;1.80;;;1.50;;
69771;SDS011;57046;45.988;18.664;2022-08-19T02:52:07;3.53;;;1.57;;
69771;SDS011;57046;45.988;18.664;2022-08-19T02:54:32;2.53;;;1.38;;
69771;SDS011;57046;45.988;18.664;2022-08-19T02:56:58;2.00;;;1.33;;
69771;SDS011;57046;45.988;18.664;2022-08-19T02:59:24;2.85;;;1.48;;
69771;SDS011;57046;45.988;18.664;2022-08-19T03:01:49;2.23;;;1.47;;
69771;SDS011;57046;45.988;18.664;2022-08-19T03:04:15;1.55;;;1.27;;
69771;SDS011;57046;45.988;18.664;2022-08-19T03:06:42;1.87;;;1.40;;
69771;SDS011;57046;45.988;18.664;2022-08-19T03:09:11;1.73;;;1.33;;
69771;SDS011;57046;45.988;18.664;2022-08-19T03:11:37;1.48;;;1.38;;
69771;SDS011;57046;45.988;18.664;2022-08-19T03:14:03;1.90;;;0.95;;
69771;SDS011;57046;45.988;18.664;2022-08-19T03:16:31;2.88;;;1.67;;
69771;SDS011;57046;45.988;18.664;2022-08-19T03:18:57;3.60;;;1.10;;
69771;SDS011;57046;45.988;18.664;2022-08-19T03:21:24;2.73;;;1.30;;
69771;SDS011;57046;45.988;18.664;2022-08-19T03:23:54;2.95;;;1.27;;
69771;SDS011;57046;45.988;18.664;2022-08-19T03:26:24;2.73;;;1.50;;
69771;SDS011;57046;45.988;18.664;2022-08-19T03:28:50;2.97;;;1.00;;
69771;SDS011;57046;45.988;18.664;2022-08-19T03:31:17;2.90;;;1.37;;
69771;SDS011;57046;45.988;18.664;2022-08-19T03:33:45;3.97;;;1.40;;
69771;SDS011;57046;45.988;18.664;2022-08-19T03:36:14;2.63;;;1.30;;
69771;SDS011;57046;45.988;18.664;2022-08-19T03:38:47;2.40;;;1.05;;
69771;SDS011;57046;45.988;18.664;2022-08-19T03:41:19;3.47;;;1.47;;
69771;SDS011;57046;45.988;18.664;2022-08-19T03:43:47;2.50;;;1.40;;
69771;SDS011;57046;45.988;18.664;2022-08-19T03:46:14;2.35;;;1.40;;
69771;SDS011;57046;45.988;18.664;2022-08-19T03:48:44;2.53;;;1.60;;
69771;SDS011;57046;45.988;18.664;2022-08-19T03:51:17;3.23;;;1.63;;
69771;SDS011;57046;45.988;18.664;2022-08-19T03:53:45;2.10;;;1.50;;
69771;SDS011;57046;45.988;18.664;2022-08-19T03:56:11;2.85;;;1.65;;
69771;SDS011;57046;45.988;18.664;2022-08-19T03:58:37;2.95;;;1.48;;
69771;SDS011;57046;45.988;18.664;2022-08-19T04:01:06;2.57;;;1.60;;
69771;SDS011;57046;45.988;18.664;2022-08-19T04:03:33;3.38;;;1.55;;
69771;SDS011;57046;45.988;18.664;2022-08-19T04:05:59;3.42;;;1.83;;
69771;SDS011;57046;45.988;18.664;2022-08-19T04:08:24;1.80;;;1.30;;
69771;SDS011;57046;45.988;18.664;2022-08-19T04:10:49;2.80;;;1.40;;
69771;SDS011;57046;45.988;18.664;2022-08-19T04:13:16;2.87;;;1.40;;
69771;SDS011;57046;45.988;18.664;2022-08-19T04:15:44;2.40;;;1.20;;
69771;SDS011;57046;45.988;18.664;2022-08-19T04:18:14;3.67;;;1.40;;
69771;SDS011;57046;45.988;18.664;2022-08-19T04:20:43;2.25;;;1.30;;
69771;SDS011;57046;45.988;18.664;2022-08-19T04:23:10;1.70;;;1.40;;
69771;SDS011;57046;45.988;18.664;2022-08-19T04:25:38;2.45;;;1.20;;
69771;SDS011;57046;45.988;18.664;2022-08-19T04:28:05;2.13;;;1.23;;
69771;SDS011;57046;45.988;18.664;2022-08-19T04:30:30;2.10;;;1.10;;
69771;SDS011;57046;45.988;18.664;2022-08-19T04:33:01;2.28;;;0.85;;
69771;SDS011;57046;45.988;18.664;2022-08-19T04:35:27;2.03;;;1.00;;
69771;SDS011;57046;45.988;18.664;2022-08-19T04:37:52;3.53;;;1.40;;
69771;SDS011;57046;45.988;18.664;2022-08-19T04:40:17;1.70;;;0.93;;
69771;SDS011;57046;45.988;18.664;2022-08-19T04:42:43;2.10;;;1.30;;
69771;SDS011;57046;45.988;18.664;2022-08-19T04:45:10;2.53;;;1.17;;
69771;SDS011;57046;45.988;18.664;2022-08-19T04:47:38;3.13;;;1.50;;
69771;SDS011;57046;45.988;18.664;2022-08-19T04:50:05;2.92;;;1.05;;
69771;SDS011;57046;45.988;18.664;2022-08-19T04:52:32;2.53;;;1.02;;
69771;SDS011;57046;45.988;18.664;2022-08-19T04:54:57;2.13;;;1.33;;
69771;SDS011;57046;45.988;18.664;2022-08-19T04:57:24;2.50;;;0.90;;
69771;SDS011;57046;45.988;18.664;2022-08-19T04:59:53;2.63;;;1.17;;
69771;SDS011;57046;45.988;18.664;2022-08-19T05:02:19;1.83;;;1.02;;
69771;SDS011;57046;45.988;18.664;2022-08-19T05:04:45;2.58;;;1.60;;
69771;SDS011;57046;45.988;18.664;2022-08-19T05:07:11;1.70;;;1.30;;
69771;SDS011;57046;45.988;18.664;2022-08-19T05:09:36;3.57;;;1.70;;
69771;SDS011;57046;45.988;18.664;2022-08-19T05:12:02;2.13;;;1.15;;
69771;SDS011;57046;45.988;18.664;2022-08-19T05:14:27;1.57;;;0.90;;
69771;SDS011;57046;45.988;18.664;2022-08-19T05:16:52;3.57;;;1.30;;
69771;SDS011;57046;45.988;18.664;2022-08-19T05:19:18;2.22;;;1.13;;
69771;SDS011;57046;45.988;18.664;2022-08-19T05:21:44;5.43;;;1.60;;
69771;SDS011;57046;45.988;18.664;2022-08-19T05:24:09;2.17;;;1.25;;
69771;SDS011;57046;45.988;18.664;2022-08-19T05:26:36;2.00;;;1.20;;
69771;SDS011;57046;45.988;18.664;2022-08-19T05:29:06;2.20;;;1.27;;
69771;SDS011;57046;45.988;18.664;2022-08-19T05:31:33;3.30;;;1.50;;
69771;SDS011;57046;45.988;18.664;2022-08-19T05:33:59;2.20;;;1.50;;
69771;SDS011;57046;45.988;18.664;2022-08-19T05:36:25;1.50;;;1.20;;
69771;SDS011;57046;45.988;18.664;2022-08-19T05:38:52;2.13;;;1.60;;
69771;SDS011;57046;45.988;18.664;2022-08-19T05:41:18;2.05;;;1.50;;
69771;SDS011;57046;45.988;18.664;2022-08-19T05:43:45;2.90;;;1.50;;
69771;SDS011;57046;45.988;18.664;2022-08-19T05:46:19;3.90;;;1.55;;
69771;SDS011;57046;45.988;18.664;2022-08-19T05:48:45;1.87;;;1.40;;
69771;SDS011;57046;45.988;18.664;2022-08-19T05:51:11;2.75;;;1.40;;
69771;SDS011;57046;45.988;18.664;2022-08-19T05:53:36;3.30;;;1.60;;
69771;SDS011;57046;45.988;18.664;2022-08-19T05:56:05;2.70;;;1.30;;
69771;SDS011;57046;45.988;18.664;2022-08-19T05:58:32;2.25;;;1.42;;
69771;SDS011;57046;45.988;18.664;2022-08-19T06:00:58;3.27;;;2.00;;
69771;SDS011;57046;45.988;18.664;2022-08-19T06:03:24;3.72;;;1.40;;
69771;SDS011;57046;45.988;18.664;2022-08-19T06:05:49;3.13;;;1.30;;
69771;SDS011;57046;45.988;18.664;2022-08-19T06:08:15;2.10;;;1.30;;
69771;SDS011;57046;45.988;18.664;2022-08-19T06:10:40;2.87;;;1.70;;
69771;SDS011;57046;45.988;18.664;2022-08-19T06:13:05;2.47;;;1.60;;
69771;SDS011;57046;45.988;18.664;2022-08-19T06:15:30;2.00;;;1.30;;
69771;SDS011;57046;45.988;18.664;2022-08-19T06:17:56;2.07;;;1.33;;
69771;SDS011;57046;45.988;18.664;2022-08-19T06:20:21;4.07;;;1.42;;
69771;SDS011;57046;45.988;18.664;2022-08-19T06:22:47;1.90;;;1.50;;
69771;SDS011;57046;45.988;18.664;2022-08-19T06:25:14;3.10;;;1.48;;
69771;SDS011;57046;45.988;18.664;2022-08-19T06:27:40;1.90;;;1.47;;
69771;SDS011;57046;45.988;18.664;2022-08-19T06:30:06;2.30;;;1.40;;
69771;SDS011;57046;45.988;18.664;2022-08-19T06:32:32;2.17;;;1.50;;
69771;SDS011;57046;45.988;18.664;2022-08-19T06:34:57;2.23;;;0.97;;
69771;SDS011;57046;45.988;18.664;2022-08-19T06:37:23;1.88;;;1.30;;
69771;SDS011;57046;45.988;18.664;2022-08-19T06:39:49;3.80;;;1.60;;
69771;SDS011;57046;45.988;18.664;2022-08-19T06:42:15;2.35;;;1.42;;
69771;SDS011;57046;45.988;18.664;2022-08-19T06:44:41;3.33;;;1.35;;
69771;SDS011;57046;45.988;18.664;2022-08-19T06:47:08;4.87;;;3.13;;
69771;SDS011;57046;45.988;18.664;2022-08-19T06:49:35;2.20;;;1.30;;
69771;SDS011;57046;45.988;18.664;2022-08-19T06:52:01;2.17;;;1.42;;
69771;SDS011;57046;45.988;18.664;2022-08-19T06:54:27;1.90;;;1.50;;
69771;SDS011;57046;45.988;18.664;2022-08-19T06:56:53;1.88;;;1.13;;
69771;SDS011;57046;45.988;18.664;2022-08-19T06:59:21;2.73;;;1.70;;
69771;SDS011;57046;45.988;18.664;2022-08-19T07:01:49;4.05;;;1.48;;
69771;SDS011;57046;45.988;18.664;2022-08-19T07:04:17;2.47;;;1.42;;
69771;SDS011;57046;45.988;18.664;2022-08-19T07:06:48;2.10;;;1.37;;
69771;SDS011;57046;45.988;18.664;2022-08-19T07:09:15;1.87;;;1.10;;
69771;SDS011;57046;45.988;18.664;2022-08-19T07:11:49;3.80;;;1.40;;
69771;SDS011;57046;45.988;18.664;2022-08-19T07:14:17;2.42;;;1.52;;
69771;SDS011;57046;45.988;18.664;2022-08-19T07:16:45;4.10;;;1.85;;
69771;SDS011;57046;45.988;18.664;2022-08-19T07:19:12;2.22;;;1.83;;
69771;SDS011;57046;45.988;18.664;2022-08-19T07:21:38;1.80;;;1.50;;
69771;SDS011;57046;45.988;18.664;2022-08-19T07:24:03;2.13;;;1.55;;
69771;SDS011;57046;45.988;18.664;2022-08-19T07:26:31;2.23;;;1.80;;
69771;SDS011;57046;45.988;18.664;2022-08-19T07:28:58;2.00;;;1.50;;
69771;SDS011;57046;45.988;18.664;2022-08-19T07:31:25;2.90;;;1.88;;
69771;SDS011;57046;45.988;18.664;2022-08-19T07:33:52;3.50;;;1.67;;
69771;SDS011;57046;45.988;18.664;2022-08-19T07:36:23;3.30;;;1.63;;
69771;SDS011;57046;45.988;18.664;2022-08-19T07:38:53;2.70;;;1.40;;
69771;SDS011;57046;45.988;18.664;2022-08-19T07:41:22;4.40;;;1.77;;
69771;SDS011;57046;45.988;18.664;2022-08-19T07:43:50;2.70;;;1.90;;
69771;SDS011;57046;45.988;18.664;2022-08-19T07:46:17;2.13;;;1.83;;
69771;SDS011;57046;45.988;18.664;2022-08-19T07:48:43;4.03;;;2.00;;
69771;SDS011;57046;45.988;18.664;2022-08-19T07:51:10;2.08;;;1.83;;
69771;SDS011;57046;45.988;18.664;2022-08-19T07:53:39;2.67;;;1.95;;
69771;SDS011;57046;45.988;18.664;2022-08-19T07:56:05;3.13;;;2.40;;
69771;SDS011;57046;45.988;18.664;2022-08-19T07:58:32;2.63;;;2.13;;
69771;SDS011;57046;45.988;18.664;2022-08-19T08:01:00;3.35;;;1.90;;
69771;SDS011;57046;45.988;18.664;2022-08-19T08:03:27;2.73;;;1.50;;
69771;SDS011;57046;45.988;18.664;2022-08-19T08:05:57;2.60;;;1.63;;
69771;SDS011;57046;45.988;18.664;2022-08-19T08:08:23;2.95;;;1.65;;
69771;SDS011;57046;45.988;18.664;2022-08-19T08:10:48;3.40;;;2.00;;
69771;SDS011;57046;45.988;18.664;2022-08-19T08:13:15;2.08;;;1.88;;
69771;SDS011;57046;45.988;18.664;2022-08-19T08:15:40;3.33;;;2.40;;
69771;SDS011;57046;45.988;18.664;2022-08-19T08:18:05;2.23;;;2.03;;
69771;SDS011;57046;45.988;18.664;2022-08-19T08:20:31;2.60;;;2.40;;
69771;SDS011;57046;45.988;18.664;2022-08-19T08:22:58;2.30;;;1.90;;
69771;SDS011;57046;45.988;18.664;2022-08-19T08:25:23;2.30;;;2.10;;
69771;SDS011;57046;45.988;18.664;2022-08-19T08:27:49;2.70;;;2.28;;
69771;SDS011;57046;45.988;18.664;2022-08-19T08:30:16;3.70;;;2.23;;
69771;SDS011;57046;45.988;18.664;2022-08-19T08:32:43;2.60;;;2.40;;
69771;SDS011;57046;45.988;18.664;2022-08-19T08:35:11;3.58;;;2.25;;
69771;SDS011;57046;45.988;18.664;2022-08-19T08:37:38;3.13;;;2.70;;
69771;SDS011;57046;45.988;18.664;2022-08-19T08:40:05;3.10;;;2.73;;
69771;SDS011;57046;45.988;18.664;2022-08-19T08:42:39;2.60;;;1.97;;
69771;SDS011;57046;45.988;18.664;2022-08-19T08:45:14;2.47;;;2.10;;
69771;SDS011;57046;45.988;18.664;2022-08-19T08:47:44;2.30;;;1.70;;
69771;SDS011;57046;45.988;18.664;2022-08-19T08:50:15;2.30;;;2.10;;
69771;SDS011;57046;45.988;18.664;2022-08-19T08:52:47;2.17;;;1.70;;
69771;SDS011;57046;45.988;18.664;2022-08-19T08:55:19;2.47;;;1.80;;
69771;SDS011;57046;45.988;18.664;2022-08-19T09:00:21;3.03;;;1.90;;
69771;SDS011;57046;45.988;18.664;2022-08-19T09:02:59;1.48;;;1.38;;
69771;SDS011;57046;45.988;18.664;2022-08-19T09:05:26;1.98;;;1.77;;
69771;SDS011;57046;45.988;18.664;2022-08-19T09:08:10;1.83;;;1.63;;
69771;SDS011;57046;45.988;18.664;2022-08-19T09:10:49;1.70;;;1.60;;
69771;SDS011;57046;45.988;18.664;2022-08-19T09:13:24;4.00;;;1.65;;
69771;SDS011;57046;45.988;18.664;2022-08-19T09:15:54;2.70;;;2.10;;
69771;SDS011;57046;45.988;18.664;2022-08-19T09:18:24;2.03;;;1.80;;
69771;SDS011;57046;45.988;18.664;2022-08-19T09:20:50;2.93;;;2.10;;
69771;SDS011;57046;45.988;18.664;2022-08-19T09:23:15;1.90;;;1.80;;
69771;SDS011;57046;45.988;18.664;2022-08-19T09:25:41;3.05;;;1.95;;
69771;SDS011;57046;45.988;18.664;2022-08-19T09:28:07;1.97;;;1.70;;
69771;SDS011;57046;45.988;18.664;2022-08-19T09:30:34;2.58;;;2.08;;
69771;SDS011;57046;45.988;18.664;2022-08-19T09:33:04;4.15;;;1.98;;
69771;SDS011;57046;45.988;18.664;2022-08-19T09:35:31;1.65;;;1.52;;
69771;SDS011;57046;45.988;18.664;2022-08-19T09:37:58;2.30;;;1.92;;
69771;SDS011;57046;45.988;18.664;2022-08-19T09:40:24;2.25;;;1.52;;
69771;SDS011;57046;45.988;18.664;2022-08-19T09:42:49;2.53;;;1.80;;
69771;SDS011;57046;45.988;18.664;2022-08-19T09:45:16;1.93;;;1.73;;
69771;SDS011;57046;45.988;18.664;2022-08-19T09:47:43;2.83;;;1.90;;
69771;SDS011;57046;45.988;18.664;2022-08-19T09:50:11;3.30;;;1.63;;
69771;SDS011;57046;45.988;18.664;2022-08-19T09:52:37;2.58;;;1.80;;
69771;SDS011;57046;45.988;18.664;2022-08-19T09:55:04;2.13;;;1.80;;
69771;SDS011;57046;45.988;18.664;2022-08-19T09:57:30;2.53;;;1.33;;
69771;SDS011;57046;45.988;18.664;2022-08-19T09:59:55;1.70;;;1.43;;
69771;SDS011;57046;45.988;18.664;2022-08-19T10:02:21;1.80;;;1.67;;
69771;SDS011;57046;45.988;18.664;2022-08-19T10:04:46;2.80;;;1.83;;
69771;SDS011;57046;45.988;18.664;2022-08-19T10:07:11;1.67;;;1.53;;
69771;SDS011;57046;45.988;18.664;2022-08-19T10:09:37;2.13;;;1.83;;
69771;SDS011;57046;45.988;18.664;2022-08-19T10:12:03;2.03;;;1.20;;
69771;SDS011;57046;45.988;18.664;2022-08-19T10:14:30;2.22;;;1.65;;
69771;SDS011;57046;45.988;18.664;2022-08-19T10:16:55;2.38;;;1.65;;
69771;SDS011;57046;45.988;18.664;2022-08-19T10:19:21;1.97;;;1.77;;
69771;SDS011;57046;45.988;18.664;2022-08-19T10:21:46;2.63;;;2.00;;
69771;SDS011;57046;45.988;18.664;2022-08-19T10:24:12;1.63;;;1.30;;
69771;SDS011;57046;45.988;18.664;2022-08-19T10:26:38;3.40;;;1.97;;
69771;SDS011;57046;45.988;18.664;2022-08-19T10:29:05;1.85;;;1.70;;
69771;SDS011;57046;45.988;18.664;2022-08-19T10:31:31;2.03;;;1.70;;
69771;SDS011;57046;45.988;18.664;2022-08-19T10:33:58;2.53;;;1.45;;
69771;SDS011;57046;45.988;18.664;2022-08-19T10:36:25;2.80;;;1.83;;
69771;SDS011;57046;45.988;18.664;2022-08-19T10:38:55;2.17;;;1.75;;
69771;SDS011;57046;45.988;18.664;2022-08-19T10:41:23;2.38;;;2.00;;
69771;SDS011;57046;45.988;18.664;2022-08-19T10:43:52;1.88;;;1.77;;
69771;SDS011;57046;45.988;18.664;2022-08-19T10:46:22;2.03;;;1.70;;
69771;SDS011;57046;45.988;18.664;2022-08-19T10:48:49;2.10;;;1.80;;
69771;SDS011;57046;45.988;18.664;2022-08-19T10:51:15;1.33;;;1.17;;
69771;SDS011;57046;45.988;18.664;2022-08-19T10:53:41;1.47;;;1.20;;
69771;SDS011;57046;45.988;18.664;2022-08-19T10:56:07;1.07;;;0.97;;
69771;SDS011;57046;45.988;18.664;2022-08-19T10:58:32;2.10;;;1.20;;
69771;SDS011;57046;45.988;18.664;2022-08-19T11:00:58;1.23;;;1.13;;
69771;SDS011;57046;45.988;18.664;2022-08-19T11:03:24;2.42;;;1.83;;
69771;SDS011;57046;45.988;18.664;2022-08-19T11:05:57;3.03;;;1.67;;
69771;SDS011;57046;45.988;18.664;2022-08-19T11:08:33;1.67;;;1.50;;
69771;SDS011;57046;45.988;18.664;2022-08-19T11:11:00;1.88;;;1.60;;
69771;SDS011;57046;45.988;18.664;2022-08-19T11:13:27;1.58;;;1.25;;
69771;SDS011;57046;45.988;18.664;2022-08-19T11:16:05;2.50;;;1.90;;
69771;SDS011;57046;45.988;18.664;2022-08-19T11:18:40;2.20;;;1.97;;
69771;SDS011;57046;45.988;18.664;2022-08-19T11:21:10;2.40;;;1.52;;
69771;SDS011;57046;45.988;18.664;2022-08-19T11:23:40;1.80;;;1.65;;
69771;SDS011;57046;45.988;18.664;2022-08-19T11:26:05;1.90;;;1.38;;
69771;SDS011;57046;45.988;18.664;2022-08-19T11:28:31;1.88;;;1.45;;
69771;SDS011;57046;45.988;18.664;2022-08-19T11:30:56;3.67;;;2.00;;
69771;SDS011;57046;45.988;18.664;2022-08-19T11:33:22;1.77;;;1.20;;
69771;SDS011;57046;45.988;18.664;2022-08-19T11:35:48;2.90;;;1.77;;
69771;SDS011;57046;45.988;18.664;2022-08-19T11:38:14;2.05;;;1.55;;
69771;SDS011;57046;45.988;18.664;2022-08-19T11:40:39;1.50;;;1.20;;
69771;SDS011;57046;45.988;18.664;2022-08-19T11:43:04;2.00;;;1.27;;
69771;SDS011;57046;45.988;18.664;2022-08-19T11:45:30;1.95;;;1.63;;
69771;SDS011;57046;45.988;18.664;2022-08-19T11:47:57;1.77;;;1.30;;
69771;SDS011;57046;45.988;18.664;2022-08-19T11:50:23;1.57;;;1.10;;
69771;SDS011;57046;45.988;18.664;2022-08-19T11:52:48;1.35;;;0.98;;
69771;SDS011;57046;45.988;18.664;2022-08-19T11:55:14;1.60;;;1.50;;
69771;SDS011;57046;45.988;18.664;2022-08-19T11:57:40;3.30;;;1.40;;
69771;SDS011;57046;45.988;18.664;2022-08-19T12:00:06;3.33;;;1.10;;
69771;SDS011;57046;45.988;18.664;2022-08-19T12:02:32;1.70;;;1.00;;
69771;SDS011;57046;45.988;18.664;2022-08-19T12:04:57;1.05;;;0.95;;
69771;SDS011;57046;45.988;18.664;2022-08-19T12:07:22;1.10;;;1.00;;
69771;SDS011;57046;45.988;18.664;2022-08-19T12:09:48;1.87;;;1.03;;
69771;SDS011;57046;45.988;18.664;2022-08-19T12:12:13;2.33;;;1.07;;
69771;SDS011;57046;45.988;18.664;2022-08-19T12:14:39;0.88;;;0.70;;
69771;SDS011;57046;45.988;18.664;2022-08-19T12:17:04;1.67;;;0.77;;
69771;SDS011;57046;45.988;18.664;2022-08-19T12:19:30;1.00;;;0.50;;
69771;SDS011;57046;45.988;18.664;2022-08-19T12:21:58;0.77;;;0.40;;
69771;SDS011;57046;45.988;18.664;2022-08-19T12:24:24;2.43;;;0.90;;
69771;SDS011;57046;45.988;18.664;2022-08-19T12:26:50;1.42;;;0.50;;
69771;SDS011;57046;45.988;18.664;2022-08-19T12:29:16;1.13;;;0.60;;
69771;SDS011;57046;45.988;18.664;2022-08-19T12:31:43;2.07;;;0.53;;
69771;SDS011;57046;45.988;18.664;2022-08-19T12:34:08;1.13;;;0.40;;
69771;SDS011;57046;45.988;18.664;2022-08-19T12:36:34;1.47;;;0.30;;
69771;SDS011;57046;45.988;18.664;2022-08-19T12:38:59;3.10;;;0.50;;
69771;SDS011;57046;45.988;18.664;2022-08-19T12:41:25;1.35;;;0.30;;
69771;SDS011;57046;45.988;18.664;2022-08-19T12:43:51;1.33;;;0.30;;
69771;SDS011;57046;45.988;18.664;2022-08-19T12:46:16;1.45;;;0.20;;
69771;SDS011;57046;45.988;18.664;2022-08-19T12:48:43;2.40;;;0.20;;
69771;SDS011;57046;45.988;18.664;2022-08-19T12:51:10;0.60;;;0.30;;
69771;SDS011;57046;45.988;18.664;2022-08-19T12:53:38;1.20;;;0.32;;
69771;SDS011;57046;45.988;18.664;2022-08-19T12:56:04;1.88;;;0.50;;
69771;SDS011;57046;45.988;18.664;2022-08-19T12:58:30;1.03;;;0.27;;
69771;SDS011;57046;45.988;18.664;2022-08-19T13:00:55;0.87;;;0.30;;
69771;SDS011;57046;45.988;18.664;2022-08-19T13:03:21;1.47;;;0.33;;
69771;SDS011;57046;45.988;18.664;2022-08-19T13:05:46;4.37;;;0.60;;
69771;SDS011;57046;45.988;18.664;2022-08-19T13:08:11;4.72;;;0.25;;
69771;SDS011;57046;45.988;18.664;2022-08-19T13:10:37;2.33;;;0.37;;
69771;SDS011;57046;45.988;18.664;2022-08-19T13:13:03;1.33;;;0.40;;
69771;SDS011;57046;45.988;18.664;2022-08-19T13:15:32;0.98;;;0.20;;
69771;SDS011;57046;45.988;18.664;2022-08-19T13:17:59;2.55;;;0.20;;
69771;SDS011;57046;45.988;18.664;2022-08-19T13:20:24;1.80;;;0.30;;
69771;SDS011;57046;45.988;18.664;2022-08-19T13:22:50;1.23;;;0.20;;
69771;SDS011;57046;45.988;18.664;2022-08-19T13:25:16;1.95;;;0.65;;
69771;SDS011;57046;45.988;18.664;2022-08-19T13:27:43;1.77;;;0.17;;
69771;SDS011;57046;45.988;18.664;2022-08-19T13:30:09;0.97;;;0.20;;
69771;SDS011;57046;45.988;18.664;2022-08-19T13:32:38;1.35;;;0.40;;
69771;SDS011;57046;45.988;18.664;2022-08-19T13:35:03;2.87;;;0.20;;
69771;SDS011;57046;45.988;18.664;2022-08-19T13:37:29;0.80;;;0.30;;
69771;SDS011;57046;45.988;18.664;2022-08-19T13:39:54;1.73;;;0.33;;
69771;SDS011;57046;45.988;18.664;2022-08-19T13:42:19;1.90;;;0.25;;
69771;SDS011;57046;45.988;18.664;2022-08-19T13:44:45;3.23;;;0.40;;
69771;SDS011;57046;45.988;18.664;2022-08-19T13:47:10;0.97;;;0.10;;
69771;SDS011;57046;45.988;18.664;2022-08-19T13:49:35;0.77;;;0.40;;
69771;SDS011;57046;45.988;18.664;2022-08-19T13:52:02;2.00;;;0.63;;
69771;SDS011;57046;45.988;18.664;2022-08-19T13:54:28;1.27;;;0.43;;
69771;SDS011;57046;45.988;18.664;2022-08-19T13:56:54;2.35;;;1.00;;
69771;SDS011;57046;45.988;18.664;2022-08-19T13:59:19;0.40;;;0.20;;
69771;SDS011;57046;45.988;18.664;2022-08-19T14:01:45;1.00;;;0.50;;
69771;SDS011;57046;45.988;18.664;2022-08-19T14:04:10;1.03;;;0.33;;
69771;SDS011;57046;45.988;18.664;2022-08-19T14:06:35;2.03;;;0.77;;
69771;SDS011;57046;45.988;18.664;2022-08-19T14:09:01;1.42;;;0.35;;
69771;SDS011;57046;45.988;18.664;2022-08-19T14:11:26;1.27;;;0.37;;
69771;SDS011;57046;45.988;18.664;2022-08-19T14:13:51;2.30;;;0.50;;
69771;SDS011;57046;45.988;18.664;2022-08-19T14:16:17;1.33;;;0.27;;
69771;SDS011;57046;45.988;18.664;2022-08-19T14:18:42;1.03;;;0.27;;
69771;SDS011;57046;45.988;18.664;2022-08-19T14:21:14;0.65;;;0.30;;
69771;SDS011;57046;45.988;18.664;2022-08-19T14:23:41;1.33;;;0.30;;
69771;SDS011;57046;45.988;18.664;2022-08-19T14:26:08;5.10;;;0.23;;
69771;SDS011;57046;45.988;18.664;2022-08-19T14:28:36;1.58;;;1.00;;
69771;SDS011;57046;45.988;18.664;2022-08-19T14:31:01;1.35;;;0.65;;
69771;SDS011;57046;45.988;18.664;2022-08-19T14:33:27;2.53;;;0.60;;
69771;SDS011;57046;45.988;18.664;2022-08-19T14:35:52;1.70;;;0.30;;